Time;durP1;ratioP1;P1;durP2;ratioP2;P2;SDS_P1;SDS_P2;PMS_P1;PMS_P2;Temp;Humidity;BMP_temperature;BMP_pressure;BME280_temperature;BME280_humidity;BME280_pressure;Samples;Min_cycle;Max_cycle;Signal;HPM_P1;HPM_P2
2021/06/29 00:00:47;;;;;;;3.00;2.80;;;;;25.00;100126.00;;;;2062481;28;20235;-74
2021/06/29 00:01:49;;;;;;;3.00;2.80;;;;;25.00;100133.00;;;;2053128;28;20208;-74
2021/06/29 00:03:03;;;;;;;3.00;2.80;;;;;25.00;100125.00;;;;2059477;28;20674;-74
2021/06/29 00:04:03;;;;;;;3.40;3.20;;;;;25.00;100123.00;;;;2058043;28;20579;-74
2021/06/29 00:05:04;;;;;;;3.10;2.90;;;;;25.00;100116.00;;;;2058541;28;20203;-74
2021/06/29 00:06:04;;;;;;;3.20;3.00;;;;;25.00;100123.00;;;;2057670;28;20712;-74
2021/06/29 00:07:05;;;;;;;3.40;3.20;;;;;25.00;100112.00;;;;2049876;28;20275;-74
2021/06/29 00:08:07;;;;;;;3.17;2.97;;;;;25.00;100118.00;;;;2058288;28;20215;-74
2021/06/29 00:09:07;;;;;;;3.40;3.20;;;;;25.00;100115.00;;;;2058538;28;20647;-73
2021/06/29 00:10:08;;;;;;;3.53;3.33;;;;;25.00;100114.00;;;;2058424;28;20214;-74
2021/06/29 00:11:08;;;;;;;3.10;2.90;;;;;25.00;100112.00;;;;2058696;28;20354;-74
2021/06/29 00:12:09;;;;;;;2.90;2.70;;;;;25.00;100109.00;;;;2053637;28;20272;-73
2021/06/29 00:13:10;;;;;;;2.90;2.70;;;;;25.00;100111.00;;;;2050268;28;20385;-74
2021/06/29 00:14:10;;;;;;;2.90;2.70;;;;;25.00;100114.00;;;;2065493;28;20702;-74
2021/06/29 00:15:10;;;;;;;3.40;3.20;;;;;25.00;100115.00;;;;2055129;28;20224;-74
2021/06/29 00:16:11;;;;;;;3.20;3.00;;;;;25.00;100119.00;;;;2051910;28;20216;-74
2021/06/29 00:17:12;;;;;;;3.10;2.90;;;;;25.00;100115.00;;;;2056616;28;20230;-74
2021/06/29 00:18:12;;;;;;;3.17;2.97;;;;;25.00;100121.00;;;;2051910;28;20270;-74
2021/06/29 00:19:12;;;;;;;3.57;3.37;;;;;25.00;100119.00;;;;2059729;28;20305;-74
2021/06/29 00:20:13;;;;;;;3.30;3.10;;;;;25.00;100122.00;;;;2059859;28;20226;-74
2021/06/29 00:21:14;;;;;;;3.40;3.20;;;;;25.00;100117.00;;;;2059761;28;20211;-74
2021/06/29 00:22:14;;;;;;;3.40;3.20;;;;;25.00;100119.00;;;;2059870;28;20446;-74
2021/06/29 00:23:14;;;;;;;3.50;3.30;;;;;25.00;100120.00;;;;2059068;28;20306;-74
2021/06/29 00:24:15;;;;;;;3.33;3.13;;;;;25.00;100112.00;;;;2059490;28;20246;-74
2021/06/29 00:25:17;;;;;;;3.70;3.50;;;;;25.00;100111.00;;;;2060152;28;20367;-74
2021/06/29 00:26:17;;;;;;;3.38;3.17;;;;;25.00;100113.00;;;;2059918;28;20884;-74
2021/06/29 00:27:18;;;;;;;3.30;3.10;;;;;25.00;100114.00;;;;2060630;28;20265;-74
2021/06/29 00:28:18;;;;;;;3.00;2.80;;;;;25.00;100113.00;;;;2059495;28;20219;-74
2021/06/29 00:29:18;;;;;;;2.93;2.73;;;;;25.00;100086.00;;;;2059746;28;20207;-74
2021/06/29 00:30:19;;;;;;;3.53;3.33;;;;;25.00;100105.00;;;;2058977;28;20219;-74
2021/06/29 00:31:20;;;;;;;3.50;3.30;;;;;25.00;100113.00;;;;2059108;28;20220;-74
2021/06/29 00:32:20;;;;;;;4.10;3.80;;;;;25.00;100107.00;;;;2059571;28;20219;-74
2021/06/29 00:33:20;;;;;;;3.23;3.03;;;;;25.00;100106.00;;;;2060824;28;20210;-74
2021/06/29 00:34:21;;;;;;;3.53;3.33;;;;;25.00;100102.00;;;;2063883;28;20210;-74
2021/06/29 00:35:21;;;;;;;3.20;3.00;;;;;25.00;100103.00;;;;2063953;28;20211;-74
2021/06/29 00:36:21;;;;;;;3.07;2.87;;;;;25.00;100104.00;;;;2060207;28;20203;-74
2021/06/29 00:37:22;;;;;;;3.50;3.30;;;;;25.00;100109.00;;;;2043400;28;20224;-74
2021/06/29 00:38:22;;;;;;;3.20;3.00;;;;;25.00;100105.00;;;;2051395;28;20226;-74
2021/06/29 00:39:23;;;;;;;3.30;3.10;;;;;25.00;100104.00;;;;2059681;28;20220;-75
2021/06/29 00:40:23;;;;;;;3.30;3.10;;;;;25.00;100090.00;;;;2059107;28;20620;-74
2021/06/29 00:41:23;;;;;;;3.57;3.37;;;;;25.00;100106.00;;;;2059928;28;22952;-74
2021/06/29 00:42:24;;;;;;;3.33;3.10;;;;;25.00;100101.00;;;;2060921;28;20659;-74
2021/06/29 00:43:24;;;;;;;3.50;3.30;;;;;25.00;100106.00;;;;2062812;28;20243;-74
2021/06/29 00:44:24;;;;;;;3.07;2.87;;;;;25.00;100101.00;;;;2060638;28;20227;-74
2021/06/29 00:45:25;;;;;;;3.30;3.10;;;;;25.00;100106.00;;;;2060553;28;20229;-74
2021/06/29 00:46:25;;;;;;;3.80;3.50;;;;;25.00;100102.00;;;;2061387;28;20751;-74
2021/06/29 00:47:25;;;;;;;3.13;2.93;;;;;25.00;100104.00;;;;2063076;28;20215;-74
2021/06/29 00:48:26;;;;;;;3.00;2.80;;;;;25.00;100107.00;;;;2060939;28;20219;-74
2021/06/29 00:49:26;;;;;;;3.57;3.37;;;;;25.00;100110.00;;;;2059404;28;20229;-74
2021/06/29 00:50:27;;;;;;;3.47;3.27;;;;;25.00;100098.00;;;;2058484;28;20728;-74
2021/06/29 00:51:27;;;;;;;3.53;3.33;;;;;25.00;100110.00;;;;2058976;28;20600;-74
2021/06/29 00:52:27;;;;;;;3.43;3.23;;;;;25.00;100097.00;;;;2058748;28;20289;-74
2021/06/29 00:53:28;;;;;;;3.03;2.83;;;;;25.00;100106.00;;;;2051036;28;20242;-74
2021/06/29 00:54:28;;;;;;;3.60;3.40;;;;;25.00;100098.00;;;;2051534;28;20320;-74
2021/06/29 00:55:28;;;;;;;3.27;3.07;;;;;25.00;100091.00;;;;2051409;28;20212;-74
2021/06/29 00:56:28;;;;;;;3.50;3.30;;;;;25.00;100109.00;;;;2051476;28;20228;-74
2021/06/29 00:57:29;;;;;;;3.60;3.40;;;;;25.00;100098.00;;;;2058667;28;20222;-74
2021/06/29 00:58:29;;;;;;;2.90;2.70;;;;;25.00;100093.00;;;;2056121;28;20207;-74
2021/06/29 00:59:32;;;;;;;3.27;3.07;;;;;25.00;100103.00;;;;2058065;28;20242;-74
2021/06/29 01:00:32;;;;;;;3.20;3.00;;;;;25.00;100106.00;;;;2061980;28;20210;-74
2021/06/29 01:01:33;;;;;;;3.30;3.10;;;;;25.00;100096.00;;;;2062570;28;20211;-74
2021/06/29 01:02:33;;;;;;;3.40;3.20;;;;;25.00;100097.00;;;;2059971;28;20218;-74
2021/06/29 01:03:35;;;;;;;3.50;3.30;;;;;25.00;100107.00;;;;2059549;28;20210;-74
2021/06/29 01:04:39;;;;;;;3.50;3.30;;;;;25.00;100095.00;;;;2059373;28;20238;-74
2021/06/29 01:05:41;;;;;;;3.45;3.25;;;;;25.00;100089.00;;;;2051628;28;20626;-74
2021/06/29 01:06:41;;;;;;;3.30;3.10;;;;;25.00;100094.00;;;;2052144;28;20698;-73
2021/06/29 01:07:41;;;;;;;3.43;3.23;;;;;25.00;100085.00;;;;2036205;28;20328;-74
2021/06/29 01:08:42;;;;;;;3.60;3.40;;;;;25.00;100093.00;;;;2043992;28;20216;-74
2021/06/29 01:09:44;;;;;;;3.10;2.90;;;;;25.00;100097.00;;;;2060446;28;20231;-74
2021/06/29 01:10:44;;;;;;;3.20;3.00;;;;;25.00;100080.00;;;;2059583;28;20306;-74
2021/06/29 01:11:45;;;;;;;3.30;3.10;;;;;25.00;100087.00;;;;2051140;28;20215;-74
2021/06/29 01:12:45;;;;;;;3.40;3.20;;;;;25.00;100088.00;;;;2043318;28;20331;-73
2021/06/29 01:13:45;;;;;;;3.17;2.87;;;;;25.00;100087.00;;;;2059325;28;20220;-74
2021/06/29 01:14:46;;;;;;;3.53;3.33;;;;;25.00;100070.00;;;;2059527;28;20220;-74
2021/06/29 01:15:48;;;;;;;2.93;2.73;;;;;25.00;100085.00;;;;2059857;28;20223;-74
2021/06/29 01:16:48;;;;;;;3.40;3.20;;;;;25.00;100073.00;;;;2060587;28;20296;-74
2021/06/29 01:17:52;;;;;;;3.33;3.13;;;;;25.00;100069.00;;;;2060536;28;20211;-74
2021/06/29 01:18:53;;;;;;;3.40;3.20;;;;;25.00;100066.00;;;;2059747;28;20278;-74
2021/06/29 01:19:54;;;;;;;3.20;3.00;;;;;25.00;100077.00;;;;2059885;28;20257;-74
2021/06/29 01:20:55;;;;;;;3.20;3.00;;;;;25.00;100063.00;;;;2058878;28;20693;-74
2021/06/29 01:21:55;;;;;;;3.50;3.25;;;;;25.00;100069.00;;;;2059383;28;20518;-74
2021/06/29 01:23:00;;;;;;;3.60;3.40;;;;;25.00;100074.00;;;;2060755;28;20231;-74
2021/06/29 01:24:01;;;;;;;3.28;3.08;;;;;25.00;100079.00;;;;2051760;28;20316;-74
2021/06/29 01:25:02;;;;;;;3.53;3.30;;;;;25.00;100085.00;;;;2051936;28;20720;-74
2021/06/29 01:28:30;;;;;;;3.13;2.92;;;;;25.00;100081.00;;;;2060142;28;20298;-74
2021/06/29 01:31:00;;;;;;;3.10;2.90;;;;;25.00;100078.00;;;;2059905;28;20241;-74
2021/06/29 01:31:10;;;;;;;3.35;3.15;;;;;25.00;100080.00;;;;2061317;28;20211;-73
2021/06/29 01:32:14;;;;;;;3.30;3.10;;;;;25.00;100077.00;;;;2065375;28;20682;-74
2021/06/29 01:33:18;;;;;;;3.40;3.20;;;;;25.00;100079.00;;;;2055325;28;20211;-74
2021/06/29 01:34:18;;;;;;;4.18;3.88;;;;;25.00;100075.00;;;;2053174;28;20216;-74
2021/06/29 01:35:19;;;;;;;3.40;3.20;;;;;25.00;100079.00;;;;2061000;28;20217;-73
2021/06/29 01:36:20;;;;;;;3.50;3.30;;;;;25.00;100079.00;;;;2060625;28;20215;-74
2021/06/29 01:37:22;;;;;;;3.35;3.15;;;;;25.00;100083.00;;;;2058904;28;20233;-74
2021/06/29 01:38:23;;;;;;;3.90;3.70;;;;;25.00;100085.00;;;;2050944;28;20207;-74
2021/06/29 01:39:23;;;;;;;3.43;3.23;;;;;25.00;100087.00;;;;2043181;28;20236;-74
2021/06/29 01:40:26;;;;;;;3.50;3.30;;;;;25.00;100092.00;;;;2057552;28;20242;-73
2021/06/29 01:41:27;;;;;;;4.13;3.88;;;;;25.00;100093.00;;;;2060513;28;20420;-74
2021/06/29 01:42:27;;;;;;;3.37;3.17;;;;;25.00;100090.00;;;;2059646;28;20234;-74
2021/06/29 01:43:31;;;;;;;3.70;3.50;;;;;25.00;100095.00;;;;2059705;28;20496;-74
2021/06/29 01:44:34;;;;;;;3.45;3.25;;;;;25.00;100106.00;;;;2059083;28;20681;-74
2021/06/29 01:45:34;;;;;;;3.65;3.45;;;;;25.00;100095.00;;;;2067895;28;20214;-74
2021/06/29 01:46:38;;;;;;;3.30;3.10;;;;;25.00;100096.00;;;;2069701;28;20999;-74
2021/06/29 01:48:46;;;;;;;3.08;2.88;;;;;25.00;100100.00;;;;2058840;28;20243;-74
2021/06/29 01:49:47;;;;;;;3.85;3.55;;;;;25.00;100107.00;;;;2058394;28;20738;-74
2021/06/29 01:50:54;;;;;;;3.37;3.17;;;;;25.00;100110.00;;;;2058911;28;20231;-74
2021/06/29 01:51:55;;;;;;;3.60;3.40;;;;;25.00;100112.00;;;;2059617;28;20221;-74
2021/06/29 01:52:57;;;;;;;3.73;3.43;;;;;25.00;100100.00;;;;2059851;28;20243;-74
2021/06/29 01:53:57;;;;;;;3.72;3.53;;;;;25.00;100104.00;;;;2059774;28;20223;-74
2021/06/29 01:54:57;;;;;;;2.97;2.80;;;;;25.00;100100.00;;;;2050898;28;20278;-73
2021/06/29 01:55:58;;;;;;;3.50;3.30;;;;;25.00;100114.00;;;;2035018;29;20236;-74
2021/06/29 01:56:58;;;;;;;3.70;3.50;;;;;25.00;100111.00;;;;2050659;28;20216;-74
2021/06/29 01:57:59;;;;;;;3.20;3.00;;;;;25.00;100117.00;;;;2066778;28;20214;-74
2021/06/29 01:59:07;;;;;;;3.25;3.05;;;;;25.00;100112.00;;;;2067271;28;20243;-74
2021/06/29 02:00:09;;;;;;;3.58;3.38;;;;;25.00;100114.00;;;;2059647;28;20329;-74
2021/06/29 02:01:09;;;;;;;3.50;3.30;;;;;25.00;100119.00;;;;2060100;28;20222;-74
2021/06/29 02:02:10;;;;;;;3.77;3.57;;;;;25.00;100113.00;;;;2059424;28;20705;-74
2021/06/29 02:03:10;;;;;;;3.20;3.00;;;;;25.00;100111.00;;;;2059493;28;20215;-74
2021/06/29 02:04:11;;;;;;;3.50;3.30;;;;;25.00;100110.00;;;;2062556;28;20212;-74
2021/06/29 02:05:11;;;;;;;3.53;3.33;;;;;25.00;100098.00;;;;2063770;28;20208;-74
2021/06/29 02:06:12;;;;;;;3.63;3.43;;;;;25.00;100099.00;;;;2061401;28;20463;-74
2021/06/29 02:07:13;;;;;;;3.40;3.20;;;;;25.00;100104.00;;;;2059358;28;20227;-74
2021/06/29 02:08:13;;;;;;;4.20;3.90;;;;;25.00;100096.00;;;;2058409;28;20225;-74
2021/06/29 02:09:13;;;;;;;3.60;3.40;;;;;25.00;100083.00;;;;2059396;28;20215;-74
2021/06/29 02:10:14;;;;;;;3.57;3.37;;;;;25.00;100094.00;;;;2050631;28;20626;-74
2021/06/29 02:11:14;;;;;;;3.70;3.50;;;;;25.00;100098.00;;;;2058765;28;20356;-74
2021/06/29 02:12:15;;;;;;;3.90;3.70;;;;;25.00;100096.00;;;;2059129;28;20222;-74
2021/06/29 02:13:15;;;;;;;3.90;3.70;;;;;25.00;100096.00;;;;2058417;28;20229;-74
2021/06/29 02:14:15;;;;;;;3.70;3.40;;;;;25.00;100098.00;;;;2059435;28;20222;-74
2021/06/29 02:15:16;;;;;;;3.80;3.60;;;;;25.00;100105.00;;;;2060124;28;20243;-74
2021/06/29 02:16:16;;;;;;;3.40;3.20;;;;;25.00;100093.00;;;;2060103;28;20223;-74
2021/06/29 02:17:16;;;;;;;3.87;3.67;;;;;25.00;100110.00;;;;2059960;28;20223;-74
2021/06/29 02:18:17;;;;;;;3.70;3.50;;;;;25.00;100101.00;;;;2059778;28;20211;-74
2021/06/29 02:19:17;;;;;;;3.30;3.10;;;;;25.00;100103.00;;;;2058932;28;20242;-74
2021/06/29 02:20:18;;;;;;;3.47;3.27;;;;;25.00;100097.00;;;;2059177;28;20298;-74
2021/06/29 02:21:18;;;;;;;3.27;3.07;;;;;25.00;100092.00;;;;2059459;28;20219;-74
2021/06/29 02:22:18;;;;;;;3.77;3.47;;;;;25.00;100102.00;;;;2057812;28;20274;-74
2021/06/29 02:23:19;;;;;;;4.07;3.77;;;;;25.00;100100.00;;;;2060149;28;20215;-74
2021/06/29 02:24:19;;;;;;;3.50;3.30;;;;;25.00;100096.00;;;;2059154;28;20820;-71
2021/06/29 02:25:20;;;;;;;3.37;3.17;;;;;25.00;100097.00;;;;2059137;28;20208;-73
2021/06/29 02:26:21;;;;;;;3.70;3.40;;;;;25.00;100088.00;;;;2060101;28;20249;-73
2021/06/29 02:27:21;;;;;;;3.67;3.47;;;;;25.00;100092.00;;;;2059387;28;20214;-74
2021/06/29 02:28:21;;;;;;;3.23;3.03;;;;;25.00;100087.00;;;;2059141;28;20311;-73
2021/06/29 02:29:22;;;;;;;3.57;3.37;;;;;25.00;100085.00;;;;2059106;28;20624;-74
2021/06/29 02:30:22;;;;;;;3.47;3.27;;;;;25.00;100075.00;;;;2061293;28;20631;-73
2021/06/29 02:31:23;;;;;;;3.33;3.13;;;;;25.00;100075.00;;;;2061953;28;20228;-73
2021/06/29 02:32:24;;;;;;;3.20;3.00;;;;;25.00;100080.00;;;;2063729;28;20233;-74
2021/06/29 02:33:25;;;;;;;3.25;3.05;;;;;25.00;100078.00;;;;2069883;28;20297;-73
2021/06/29 02:34:25;;;;;;;3.63;3.43;;;;;25.00;100077.00;;;;2059227;28;20214;-74
2021/06/29 02:35:25;;;;;;;3.60;3.40;;;;;25.00;100068.00;;;;2059039;28;20211;-74
2021/06/29 02:36:26;;;;;;;3.73;3.53;;;;;25.00;100066.00;;;;2058844;28;20214;-73
2021/06/29 02:37:26;;;;;;;3.80;3.60;;;;;25.00;100067.00;;;;2059091;28;20237;-73
2021/06/29 02:38:27;;;;;;;3.70;3.40;;;;;25.00;100059.00;;;;2059111;28;20219;-74
2021/06/29 02:39:27;;;;;;;3.87;3.57;;;;;25.00;100064.00;;;;2058896;28;20239;-73
2021/06/29 02:40:28;;;;;;;3.37;3.17;;;;;25.00;100069.00;;;;2058960;28;20334;-73
2021/06/29 02:41:29;;;;;;;3.22;3.03;;;;;25.00;100051.00;;;;2058580;28;20209;-74
2021/06/29 02:42:29;;;;;;;3.80;3.60;;;;;25.00;100055.00;;;;2058353;28;20717;-74
2021/06/29 02:43:30;;;;;;;3.60;3.40;;;;;25.00;100048.00;;;;2059154;28;20254;-74
2021/06/29 02:44:32;;;;;;;3.73;3.47;;;;;25.00;100056.00;;;;2059822;28;20263;-73
2021/06/29 02:45:32;;;;;;;3.75;3.55;;;;;25.00;100041.00;;;;2059924;28;20207;-73
2021/06/29 02:46:35;;;;;;;3.20;3.00;;;;;25.00;100050.00;;;;2058075;28;20648;-74
2021/06/29 02:47:36;;;;;;;3.40;3.20;;;;;25.00;100052.00;;;;2059064;28;20215;-74
2021/06/29 02:48:37;;;;;;;3.83;3.63;;;;;25.00;100046.00;;;;2059191;28;20647;-74
2021/06/29 02:49:37;;;;;;;4.03;3.73;;;;;25.00;100047.00;;;;2058711;28;20221;-74
2021/06/29 02:50:38;;;;;;;3.50;3.30;;;;;25.00;100053.00;;;;2050271;28;20737;-74
2021/06/29 02:51:39;;;;;;;3.20;3.00;;;;;25.00;100049.00;;;;2042779;28;20304;-74
2021/06/29 02:52:39;;;;;;;3.07;2.87;;;;;25.00;100049.00;;;;2059067;28;20224;-74
2021/06/29 02:53:39;;;;;;;3.63;3.33;;;;;25.00;100048.00;;;;2051280;28;20212;-74
2021/06/29 02:54:40;;;;;;;3.90;3.60;;;;;25.00;100041.00;;;;2051346;28;20306;-74
2021/06/29 02:55:40;;;;;;;3.63;3.43;;;;;25.00;100050.00;;;;2060002;28;20218;-74
2021/06/29 02:56:40;;;;;;;3.47;3.27;;;;;25.00;100041.00;;;;2058939;28;20632;-74
2021/06/29 02:57:41;;;;;;;3.50;3.30;;;;;25.00;100057.00;;;;2061545;28;20619;-74
2021/06/29 02:58:41;;;;;;;3.50;3.30;;;;;25.00;100051.00;;;;2064012;28;20215;-74
2021/06/29 02:59:42;;;;;;;3.27;3.07;;;;;25.00;100046.00;;;;2063973;28;20215;-73
2021/06/29 03:00:42;;;;;;;3.37;3.17;;;;;25.00;100054.00;;;;2059193;28;20219;-74
2021/06/29 03:01:43;;;;;;;3.23;3.03;;;;;25.00;100052.00;;;;2058922;28;20247;-74
2021/06/29 03:02:43;;;;;;;3.90;3.60;;;;;25.00;100037.00;;;;2050473;28;20219;-74
2021/06/29 03:03:44;;;;;;;3.70;3.50;;;;;25.00;100047.00;;;;2040322;28;22093;-74
2021/06/29 03:04:44;;;;;;;3.57;3.37;;;;;25.00;100054.00;;;;2058609;28;20322;-74
2021/06/29 03:05:44;;;;;;;3.50;3.30;;;;;24.90;100049.00;;;;2059816;28;20232;-74
2021/06/29 03:06:45;;;;;;;3.20;3.00;;;;;25.00;100046.00;;;;2054772;28;20297;-74
2021/06/29 03:07:45;;;;;;;4.20;3.90;;;;;25.00;100056.00;;;;2054747;28;20285;-74
2021/06/29 03:08:45;;;;;;;3.27;3.07;;;;;25.00;100047.00;;;;2059818;28;20211;-74
2021/06/29 03:09:46;;;;;;;3.53;3.33;;;;;25.00;100056.00;;;;2059023;28;20234;-74
2021/06/29 03:10:46;;;;;;;3.40;3.20;;;;;25.00;100048.00;;;;2057671;28;20385;-74
2021/06/29 03:11:47;;;;;;;3.17;2.97;;;;;25.00;100050.00;;;;2057853;28;20215;-74
2021/06/29 03:12:47;;;;;;;3.40;3.20;;;;;25.00;100059.00;;;;2058177;28;20270;-74
2021/06/29 03:13:47;;;;;;;3.07;2.87;;;;;24.80;100060.00;;;;2058843;28;20215;-74
2021/06/29 03:14:53;;;;;;;3.50;3.30;;;;;25.00;100053.00;;;;2059128;28;20219;-73
2021/06/29 03:15:53;;;;;;;3.47;3.28;;;;;25.00;100052.00;;;;2059096;28;20298;-74
2021/06/29 03:16:54;;;;;;;3.37;3.17;;;;;25.00;100053.00;;;;2059577;28;20210;-74
2021/06/29 03:17:54;;;;;;;3.10;2.90;;;;;25.00;100046.00;;;;2058916;28;20693;-74
2021/06/29 03:18:54;;;;;;;3.60;3.40;;;;;25.00;100044.00;;;;2057852;28;20211;-74
2021/06/29 03:19:55;;;;;;;3.07;2.87;;;;;25.00;100038.00;;;;2058880;28;20253;-74
2021/06/29 03:20:55;;;;;;;3.30;3.10;;;;;25.00;100043.00;;;;2058106;28;20240;-74
2021/06/29 03:21:55;;;;;;;3.20;3.00;;;;;25.00;100035.00;;;;2058881;28;20226;-74
2021/06/29 03:22:56;;;;;;;4.10;3.90;;;;;25.00;100041.00;;;;2059796;28;20207;-74
2021/06/29 03:23:56;;;;;;;3.30;3.10;;;;;25.00;100035.00;;;;2059806;28;20239;-74
2021/06/29 03:24:57;;;;;;;3.67;3.43;;;;;25.00;100042.00;;;;2059920;28;20625;-74
2021/06/29 03:25:57;;;;;;;3.87;3.63;;;;;25.00;100030.00;;;;2059225;28;20241;-74
2021/06/29 03:26:57;;;;;;;3.30;3.10;;;;;25.00;100039.00;;;;2058958;28;20709;-74
2021/06/29 03:27:57;;;;;;;3.47;3.27;;;;;25.00;100036.00;;;;2062436;28;20674;-74
2021/06/29 03:28:58;;;;;;;3.17;2.97;;;;;25.00;100040.00;;;;2060900;28;20764;-74
2021/06/29 03:29:58;;;;;;;3.10;2.90;;;;;25.00;100040.00;;;;2059658;28;20678;-69
2021/06/29 03:30:58;;;;;;;3.60;3.40;;;;;25.00;100040.00;;;;2065521;28;20211;-72
2021/06/29 03:31:59;;;;;;;3.63;3.33;;;;;25.00;100041.00;;;;2063918;28;20245;-72
2021/06/29 03:32:59;;;;;;;3.43;3.23;;;;;25.00;100039.00;;;;2058713;28;20293;-73
2021/06/29 03:34:00;;;;;;;3.40;3.10;;;;;24.90;100036.00;;;;2058945;28;20215;-73
2021/06/29 03:35:00;;;;;;;3.27;3.07;;;;;24.90;100035.00;;;;2059427;28;20219;-73
2021/06/29 03:36:00;;;;;;;3.20;3.00;;;;;25.00;100048.00;;;;2059037;28;20238;-73
2021/06/29 03:37:02;;;;;;;3.23;3.03;;;;;25.00;100043.00;;;;2058873;28;20211;-74
2021/06/29 03:38:02;;;;;;;3.20;3.00;;;;;25.00;100047.00;;;;2059866;28;20216;-73
2021/06/29 03:39:06;;;;;;;3.33;3.13;;;;;25.00;100042.00;;;;2062389;28;20242;-74
2021/06/29 03:40:07;;;;;;;3.42;3.13;;;;;24.90;100050.00;;;;2062679;28;20207;-73
2021/06/29 03:41:07;;;;;;;3.20;3.00;;;;;25.00;100044.00;;;;2059203;28;20242;-74
2021/06/29 03:42:08;;;;;;;3.20;3.00;;;;;25.00;100044.00;;;;2059567;28;20450;-73
2021/06/29 03:43:08;;;;;;;3.50;3.30;;;;;25.00;100047.00;;;;2058866;28;20298;-74
2021/06/29 03:44:09;;;;;;;3.30;3.00;;;;;24.90;100044.00;;;;2058843;28;20207;-73
2021/06/29 03:45:09;;;;;;;2.83;2.63;;;;;25.00;100043.00;;;;2058964;28;20211;-74
2021/06/29 03:46:09;;;;;;;3.70;3.50;;;;;25.00;100044.00;;;;2060469;28;20204;-74
2021/06/29 03:47:10;;;;;;;3.20;3.00;;;;;25.00;100040.00;;;;2059916;28;20212;-73
2021/06/29 03:48:10;;;;;;;3.33;3.13;;;;;25.00;100046.00;;;;2060277;28;20207;-74
2021/06/29 03:49:11;;;;;;;2.97;2.77;;;;;25.00;100039.00;;;;2067163;28;20222;-73
2021/06/29 03:50:11;;;;;;;2.70;2.60;;;;;25.00;100046.00;;;;2065452;28;20217;-73
2021/06/29 03:51:11;;;;;;;2.67;2.53;;;;;25.00;100044.00;;;;2060690;28;20690;-74
2021/06/29 03:52:12;;;;;;;3.30;3.10;;;;;24.90;100034.00;;;;2061075;28;20204;-74
2021/06/29 03:53:12;;;;;;;3.07;2.87;;;;;24.90;100034.00;;;;2061263;28;20706;-74
2021/06/29 03:54:12;;;;;;;3.33;3.13;;;;;24.90;100040.00;;;;2060574;28;20646;-74
2021/06/29 03:55:13;;;;;;;3.50;3.13;;;;;25.00;100033.00;;;;2060384;28;20745;-73
2021/06/29 03:56:29;;;;;;;3.00;2.80;;;;;25.00;100031.00;;;;2060010;28;20551;-73
2021/06/29 03:57:29;;;;;;;3.30;3.10;;;;;25.00;100034.00;;;;2059632;28;20314;-74
2021/06/29 03:58:29;;;;;;;3.00;2.60;;;;;25.00;100036.00;;;;2059916;28;20713;-74
2021/06/29 03:59:30;;;;;;;2.70;2.50;;;;;25.00;100036.00;;;;2060583;28;20222;-73
2021/06/29 04:00:31;;;;;;;3.20;3.00;;;;;25.00;100034.00;;;;2060016;28;20242;-74
2021/06/29 04:01:31;;;;;;;3.37;3.00;;;;;25.00;100034.00;;;;2060174;28;20226;-74
2021/06/29 04:02:31;;;;;;;3.00;2.80;;;;;25.00;100036.00;;;;2058791;28;20215;-74
2021/06/29 04:03:32;;;;;;;2.93;2.73;;;;;25.00;100033.00;;;;2065669;28;20232;-74
2021/06/29 04:04:32;;;;;;;3.30;3.00;;;;;24.90;100032.00;;;;2064420;28;20276;-74
2021/06/29 04:05:32;;;;;;;3.23;3.03;;;;;25.00;100040.00;;;;2063040;28;20243;-74
2021/06/29 04:06:34;;;;;;;3.03;2.83;;;;;25.00;100034.00;;;;2060095;28;20215;-74
2021/06/29 04:07:35;;;;;;;2.92;2.75;;;;;25.00;100041.00;;;;2066391;28;20669;-73
2021/06/29 04:08:35;;;;;;;3.30;3.10;;;;;25.00;100043.00;;;;2067717;28;20216;-73
2021/06/29 04:09:37;;;;;;;2.70;2.57;;;;;25.00;100047.00;;;;2060104;28;20544;-73
2021/06/29 04:10:37;;;;;;;3.55;3.35;;;;;25.00;100041.00;;;;2060711;28;20634;-73
2021/06/29 04:11:38;;;;;;;2.70;2.60;;;;;25.00;100038.00;;;;2060831;28;20211;-73
2021/06/29 04:12:38;;;;;;;2.97;2.77;;;;;25.00;100039.00;;;;2060047;28;20243;-73
2021/06/29 04:13:38;;;;;;;3.23;3.03;;;;;25.00;100042.00;;;;2060452;28;20234;-73
2021/06/29 04:14:39;;;;;;;3.70;3.50;;;;;24.90;100046.00;;;;2060156;28;20678;-74
2021/06/29 04:15:39;;;;;;;2.90;2.70;;;;;25.00;100039.00;;;;2059774;28;20787;-73
2021/06/29 04:16:39;;;;;;;3.30;3.10;;;;;25.00;100042.00;;;;2059730;28;20714;-74
2021/06/29 04:17:40;;;;;;;2.97;2.77;;;;;25.00;100042.00;;;;2062098;28;21981;-74
2021/06/29 04:18:40;;;;;;;2.90;2.70;;;;;25.00;100033.00;;;;2064160;28;20586;-73
2021/06/29 04:19:41;;;;;;;2.97;2.77;;;;;25.00;100039.00;;;;2061836;28;20227;-73
2021/06/29 04:20:41;;;;;;;3.20;3.00;;;;;25.00;100041.00;;;;2058499;28;20215;-74
2021/06/29 04:21:41;;;;;;;3.20;2.97;;;;;25.00;100040.00;;;;2059639;28;20330;-73
2021/06/29 04:22:42;;;;;;;2.90;2.70;;;;;25.00;100041.00;;;;2060137;28;20223;-74
2021/06/29 04:23:44;;;;;;;2.80;2.60;;;;;25.00;100036.00;;;;2060195;28;20223;-73
2021/06/29 04:24:44;;;;;;;3.00;2.80;;;;;25.00;100043.00;;;;2060284;28;20618;-74
2021/06/29 04:25:44;;;;;;;3.00;2.80;;;;;25.00;100034.00;;;;2060628;28;20222;-74
2021/06/29 04:26:45;;;;;;;2.80;2.60;;;;;24.80;100034.00;;;;2061045;28;20215;-74
2021/06/29 04:27:46;;;;;;;2.77;2.57;;;;;25.00;100036.00;;;;2060225;28;20211;-74
2021/06/29 04:28:46;;;;;;;4.50;3.20;;;;;25.00;100037.00;;;;2058999;28;20206;-74
2021/06/29 04:29:47;;;;;;;2.83;2.63;;;;;25.00;100035.00;;;;2059536;28;20773;-74
2021/06/29 04:30:47;;;;;;;2.83;2.63;;;;;25.00;100041.00;;;;2059396;28;20220;-74
2021/06/29 04:31:47;;;;;;;2.90;2.70;;;;;25.00;100038.00;;;;2060566;28;20240;-73
2021/06/29 04:32:48;;;;;;;3.30;3.00;;;;;24.90;100044.00;;;;2060095;28;20226;-73
2021/06/29 04:33:49;;;;;;;2.80;2.60;;;;;25.00;100040.00;;;;2060279;28;20223;-74
2021/06/29 04:34:49;;;;;;;2.65;2.45;;;;;25.00;100042.00;;;;2060821;28;20273;-74
2021/06/29 04:35:49;;;;;;;3.20;3.00;;;;;25.00;100046.00;;;;2059791;28;20215;-73
2021/06/29 04:36:50;;;;;;;2.93;2.73;;;;;25.00;100052.00;;;;2059385;28;20219;-74
2021/06/29 04:37:50;;;;;;;2.90;2.70;;;;;25.00;100047.00;;;;2060143;28;20254;-74
2021/06/29 04:38:51;;;;;;;3.10;2.90;;;;;25.00;100052.00;;;;2059891;28;20211;-74
2021/06/29 04:39:51;;;;;;;2.83;2.63;;;;;24.90;100046.00;;;;2060112;28;20238;-74
2021/06/29 04:40:52;;;;;;;3.00;2.80;;;;;25.00;100045.00;;;;2060725;28;20590;-74
2021/06/29 04:41:52;;;;;;;3.00;2.80;;;;;24.90;100063.00;;;;2060933;28;20215;-74
2021/06/29 04:42:52;;;;;;;2.40;2.30;;;;;25.00;100043.00;;;;2061000;28;20250;-74
2021/06/29 04:43:53;;;;;;;2.90;2.70;;;;;25.00;100048.00;;;;2054758;28;20273;-74
2021/06/29 04:44:53;;;;;;;2.70;2.50;;;;;25.00;100051.00;;;;2058893;28;20211;-74
2021/06/29 04:45:53;;;;;;;3.00;2.80;;;;;25.00;100047.00;;;;2059926;28;20218;-74
2021/06/29 04:46:55;;;;;;;2.90;2.70;;;;;25.00;100056.00;;;;2060045;28;20285;-74
2021/06/29 04:47:56;;;;;;;2.80;2.60;;;;;25.00;100055.00;;;;2059961;28;20303;-74
2021/06/29 04:48:58;;;;;;;3.00;2.80;;;;;25.00;100051.00;;;;2065584;28;20231;-74
2021/06/29 04:49:58;;;;;;;2.88;2.67;;;;;25.00;100066.00;;;;2065191;28;20453;-74
2021/06/29 04:50:58;;;;;;;2.73;2.53;;;;;25.00;100056.00;;;;2063371;28;20580;-74
2021/06/29 04:51:59;;;;;;;2.97;2.77;;;;;25.00;100056.00;;;;2063257;28;20270;-74
2021/06/29 04:52:59;;;;;;;2.60;2.40;;;;;25.00;100052.00;;;;2063467;28;20214;-74
2021/06/29 04:53:59;;;;;;;2.77;2.57;;;;;25.00;100052.00;;;;2063768;28;20226;-74
2021/06/29 04:55:00;;;;;;;2.90;2.70;;;;;25.00;100049.00;;;;2059922;28;20302;-74
2021/06/29 04:56:00;;;;;;;2.80;2.60;;;;;25.00;100045.00;;;;2062937;28;22803;-74
2021/06/29 04:57:02;;;;;;;2.60;2.40;;;;;25.00;100054.00;;;;2061388;28;20222;-74
2021/06/29 04:58:02;;;;;;;2.50;2.40;;;;;25.00;100044.00;;;;2066589;28;20701;-74
2021/06/29 04:59:02;;;;;;;3.13;2.93;;;;;25.00;100041.00;;;;2059784;28;20226;-74
2021/06/29 05:00:07;;;;;;;2.97;2.77;;;;;25.00;100041.00;;;;2058742;28;20242;-74
2021/06/29 05:01:08;;;;;;;3.00;2.80;;;;;25.00;100036.00;;;;2052319;28;20230;-74
2021/06/29 05:02:08;;;;;;;2.60;2.40;;;;;25.00;100034.00;;;;2055654;28;20235;-74
2021/06/29 05:03:09;;;;;;;2.83;2.63;;;;;24.90;100037.00;;;;2063515;28;20214;-74
2021/06/29 05:04:09;;;;;;;2.40;2.30;;;;;24.90;100031.00;;;;2060855;28;20219;-74
2021/06/29 05:05:09;;;;;;;3.00;2.80;;;;;25.00;100032.00;;;;2060305;28;20798;-74